createdAt,value
2022-10-24T00:01:21.873Z,4.47
2022-10-24T00:03:49.270Z,5.30
2022-10-24T00:06:16.477Z,4.38
2022-10-24T00:08:43.618Z,4.03
2022-10-24T00:11:12.351Z,3.83
2022-10-24T00:13:39.069Z,4.97
2022-10-24T00:16:06.091Z,4.07
2022-10-24T00:18:32.800Z,4.18
2022-10-24T00:20:59.247Z,4.18
2022-10-24T00:23:25.863Z,6.22
2022-10-24T00:25:52.440Z,4.85
2022-10-24T00:28:18.886Z,4.28
2022-10-24T00:30:45.445Z,4.03
2022-10-24T00:33:12.055Z,5.25
2022-10-24T00:35:38.578Z,4.03
2022-10-24T00:38:05.096Z,5.35
2022-10-24T00:40:31.572Z,3.75
2022-10-24T00:42:58.243Z,21.05
2022-10-24T00:45:55.687Z,3.63
2022-10-24T00:48:31.858Z,3.85
2022-10-24T00:51:02.820Z,3.25
2022-10-24T00:53:31.783Z,2.85
2022-10-24T00:56:04.629Z,8.73
2022-10-24T00:58:34.455Z,2.42
2022-10-24T01:01:07.969Z,2.00
2022-10-24T01:03:39.530Z,1.90
2022-10-24T01:06:11.351Z,1.63
2022-10-24T01:08:51.861Z,2.10
2022-10-24T01:11:42.915Z,2.35
2022-10-24T01:14:26.710Z,2.08
2022-10-24T01:17:07.892Z,2.05
2022-10-24T01:20:05.475Z,2.50
2022-10-24T01:25:05.942Z,2.40
2022-10-24T01:27:57.394Z,1.85
2022-10-24T01:30:25.357Z,1.88
2022-10-24T01:33:09.641Z,2.20
2022-10-24T01:35:46.038Z,2.13
2022-10-24T01:38:34.606Z,2.22
2022-10-24T01:41:06.761Z,1.33
2022-10-24T01:43:41.997Z,1.67
2022-10-24T01:46:13.589Z,1.55
2022-10-24T01:48:44.258Z,2.22
2022-10-24T01:51:14.305Z,1.50
2022-10-24T01:53:43.397Z,1.45
2022-10-24T01:56:10.029Z,1.55
2022-10-24T01:58:36.698Z,1.40
2022-10-24T02:01:10.215Z,1.55
2022-10-24T02:03:47.766Z,1.08
2022-10-24T02:06:32.238Z,1.38
2022-10-24T02:11:38.821Z,0.90
2022-10-24T02:14:23.795Z,1.10
2022-10-24T02:16:50.686Z,1.00
2022-10-24T02:19:18.203Z,0.80
2022-10-24T02:22:19.611Z,1.00
2022-10-24T02:25:02.107Z,1.10
2022-10-24T02:27:38.552Z,1.05
2022-10-24T02:30:13.021Z,0.90
2022-10-24T02:32:43.237Z,1.20
2022-10-24T02:35:12.555Z,1.00
2022-10-24T02:37:47.513Z,1.17
2022-10-24T02:40:17.346Z,2.15
2022-10-24T02:42:47.338Z,1.20
2022-10-24T02:45:15.515Z,1.33
2022-10-24T02:47:44.592Z,1.50
2022-10-24T02:50:12.590Z,1.63
2022-10-24T02:52:41.355Z,1.05
2022-10-24T02:55:08.417Z,1.65
2022-10-24T02:57:34.953Z,1.90
2022-10-24T03:00:01.460Z,1.80
2022-10-24T03:02:28.032Z,1.70
2022-10-24T03:04:54.565Z,1.60
2022-10-24T03:07:21.108Z,1.92
2022-10-24T03:09:47.731Z,1.70
2022-10-24T03:12:15.896Z,2.03
2022-10-24T03:14:42.815Z,1.63
2022-10-24T03:17:09.377Z,2.20
2022-10-24T03:19:35.951Z,1.58
2022-10-24T03:22:02.427Z,1.70
2022-10-24T03:24:43.315Z,2.28
2022-10-24T03:27:11.783Z,2.20
2022-10-24T03:29:38.359Z,1.73
2022-10-24T03:32:05.698Z,1.92
2022-10-24T03:34:32.952Z,2.03
2022-10-24T03:36:59.589Z,2.22
2022-10-24T03:39:26.137Z,2.15
2022-10-24T03:41:52.619Z,2.20
2022-10-24T03:44:19.074Z,1.73
2022-10-24T03:46:45.625Z,2.10
2022-10-24T03:49:12.097Z,1.83
2022-10-24T03:51:38.567Z,1.80
2022-10-24T03:54:05.281Z,2.00
2022-10-24T03:56:31.791Z,1.90
2022-10-24T03:58:58.238Z,1.90
2022-10-24T04:01:38.331Z,2.08
2022-10-24T04:04:05.253Z,1.83
2022-10-24T04:06:34.102Z,2.00
2022-10-24T04:09:03.693Z,1.90
2022-10-24T04:11:30.321Z,2.33
2022-10-24T04:13:57.139Z,1.80
2022-10-24T04:16:24.137Z,7.00
2022-10-24T04:18:51.263Z,2.17
2022-10-24T04:21:21.742Z,2.10
2022-10-24T04:23:49.004Z,2.25
2022-10-24T04:26:17.363Z,2.58
2022-10-24T04:28:46.756Z,2.63
2022-10-24T04:31:16.928Z,2.85
2022-10-24T04:33:46.287Z,2.60
2022-10-24T04:36:12.746Z,2.80
2022-10-24T04:38:39.277Z,2.15
2022-10-24T04:41:08.488Z,2.15
2022-10-24T04:43:37.868Z,2.05
2022-10-24T04:46:04.683Z,2.13
2022-10-24T04:48:31.183Z,1.77
2022-10-24T04:50:58.041Z,1.80
2022-10-24T04:53:24.710Z,1.70
2022-10-24T04:55:51.321Z,1.75
2022-10-24T04:58:18.346Z,1.58
2022-10-24T05:00:48.539Z,1.67
2022-10-24T05:03:15.666Z,1.75
2022-10-24T05:05:42.316Z,1.35
2022-10-24T05:08:08.796Z,1.75
2022-10-24T05:10:35.415Z,1.40
2022-10-24T05:13:01.906Z,1.70
2022-10-24T05:15:30.035Z,1.33
2022-10-24T05:17:57.896Z,1.50
2022-10-24T05:20:25.885Z,1.38
2022-10-24T05:22:52.786Z,1.30
2022-10-24T05:25:20.001Z,1.65
2022-10-24T05:27:46.789Z,1.63
2022-10-24T05:30:13.688Z,1.23
2022-10-24T05:32:40.374Z,1.40
2022-10-24T05:35:08.093Z,1.52
2022-10-24T05:37:34.571Z,1.40
2022-10-24T05:40:01.107Z,1.50
2022-10-24T05:42:27.994Z,1.50
2022-10-24T05:44:54.549Z,1.13
2022-10-24T05:47:22.728Z,1.73
2022-10-24T05:49:51.136Z,1.63
2022-10-24T05:52:17.697Z,1.60
2022-10-24T05:54:55.325Z,1.80
2022-10-24T05:57:30.950Z,1.38
2022-10-24T05:59:57.849Z,1.70
2022-10-24T06:02:24.654Z,1.42
2022-10-24T06:04:51.349Z,1.70
2022-10-24T06:07:19.132Z,1.48
2022-10-24T06:09:47.780Z,1.60
2022-10-24T06:12:17.156Z,1.60
2022-10-24T06:14:51.036Z,1.23
2022-10-24T06:17:17.823Z,1.75
2022-10-24T06:19:45.064Z,1.65
2022-10-24T06:22:11.549Z,1.80
2022-10-24T06:24:38.772Z,1.73
2022-10-24T06:27:06.501Z,1.77
2022-10-24T06:29:33.444Z,1.90
2022-10-24T06:32:00.154Z,1.80
2022-10-24T06:34:26.898Z,1.80
2022-10-24T06:36:54.136Z,1.55
2022-10-24T06:39:21.614Z,1.70
2022-10-24T06:41:48.091Z,1.80
2022-10-24T06:44:15.170Z,1.48
2022-10-24T06:46:41.695Z,1.75
2022-10-24T06:49:08.282Z,1.83
2022-10-24T06:51:34.913Z,1.98
2022-10-24T06:54:01.622Z,1.63
2022-10-24T06:56:28.203Z,1.95
2022-10-24T06:58:57.382Z,1.90
2022-10-24T07:01:27.163Z,1.85
2022-10-24T07:03:54.384Z,1.85
2022-10-24T07:06:26.564Z,1.73
2022-10-24T07:08:55.750Z,2.13
2022-10-24T07:11:22.604Z,2.45
2022-10-24T07:13:49.706Z,1.95
2022-10-24T07:16:16.373Z,1.60
2022-10-24T07:18:43.626Z,2.20
2022-10-24T07:21:18.554Z,2.00
2022-10-24T07:23:45.273Z,1.80
2022-10-24T07:26:15.109Z,1.90
2022-10-24T07:28:46.183Z,2.15
2022-10-24T07:31:25.077Z,2.20
2022-10-24T07:33:53.069Z,1.95
2022-10-24T07:36:22.296Z,1.98
2022-10-24T07:38:52.976Z,1.80
2022-10-24T07:41:22.487Z,2.10
2022-10-24T07:43:52.787Z,2.30
2022-10-24T07:46:19.946Z,1.85
2022-10-24T07:48:49.802Z,1.90
2022-10-24T07:51:19.927Z,2.35
2022-10-24T07:53:46.847Z,1.92
2022-10-24T07:56:15.703Z,1.70
2022-10-24T07:58:43.876Z,2.33
2022-10-24T08:01:14.632Z,1.70
2022-10-24T08:03:41.697Z,1.92
2022-10-24T08:06:11.918Z,1.85
2022-10-24T08:08:39.145Z,1.90
2022-10-24T08:11:11.495Z,1.85
2022-10-24T08:13:38.331Z,2.15
2022-10-24T08:16:07.259Z,2.35
2022-10-24T08:18:38.703Z,1.92
2022-10-24T08:21:08.262Z,2.08
2022-10-24T08:23:36.372Z,1.98
2022-10-24T08:26:07.370Z,1.90
2022-10-24T08:28:34.913Z,1.63
2022-10-24T08:31:04.349Z,2.05
2022-10-24T08:33:30.922Z,2.10
2022-10-24T08:36:00.955Z,2.10
2022-10-24T08:38:28.193Z,2.38
2022-10-24T08:40:55.613Z,2.25
2022-10-24T08:43:22.905Z,1.75
2022-10-24T08:46:04.622Z,1.80
2022-10-24T08:48:44.091Z,2.15
2022-10-24T08:51:28.608Z,2.22
2022-10-24T08:53:58.697Z,1.98
2022-10-24T08:56:29.586Z,2.00
2022-10-24T08:58:57.843Z,2.20
2022-10-24T09:01:38.515Z,1.80
2022-10-24T09:04:09.370Z,1.65
2022-10-24T09:06:37.084Z,2.20
2022-10-24T09:09:29.713Z,1.98
2022-10-24T09:12:02.706Z,2.20
2022-10-24T09:14:36.242Z,2.03
2022-10-24T09:17:14.795Z,2.60
2022-10-24T09:20:00.239Z,2.00
2022-10-24T09:22:30.621Z,2.30
2022-10-24T09:24:59.296Z,1.58
2022-10-24T09:27:29.637Z,2.17
2022-10-24T09:29:57.968Z,1.70
2022-10-24T09:32:33.684Z,1.92
2022-10-24T09:35:05.774Z,1.60
2022-10-24T09:37:47.349Z,1.88
2022-10-24T09:40:16.976Z,1.90
2022-10-24T09:42:55.652Z,1.90
2022-10-24T09:45:29.789Z,1.52
2022-10-24T09:48:07.680Z,1.60
2022-10-24T09:50:36.152Z,1.80
2022-10-24T09:53:04.481Z,1.85
2022-10-24T09:55:31.928Z,1.55
2022-10-24T09:58:04.054Z,3.42
2022-10-24T10:00:34.243Z,2.42
2022-10-24T10:03:23.699Z,3.00
2022-10-24T10:05:54.622Z,1.77
2022-10-24T10:08:29.672Z,1.83
2022-10-24T10:11:09.350Z,1.50
2022-10-24T10:13:49.425Z,1.85
2022-10-24T10:16:31.910Z,2.03
2022-10-24T10:19:21.625Z,2.38
2022-10-24T10:22:00.359Z,2.67
2022-10-24T10:24:47.420Z,2.50
2022-10-24T10:27:42.089Z,2.00
2022-10-24T10:30:17.475Z,1.60
2022-10-24T10:33:11.343Z,2.05
2022-10-24T10:35:37.812Z,2.00
2022-10-24T10:38:30.451Z,2.10
2022-10-24T10:41:08.145Z,2.20
2022-10-24T10:43:34.733Z,1.90
2022-10-24T10:46:11.445Z,1.83
2022-10-24T10:49:13.376Z,2.05
2022-10-24T10:51:50.431Z,1.88
2022-10-24T10:54:54.847Z,2.15
2022-10-24T10:57:29.173Z,1.90
2022-10-24T11:00:10.766Z,2.20
2022-10-24T11:03:07.690Z,2.03
2022-10-24T11:06:03.817Z,2.50
2022-10-24T11:08:42.249Z,1.60
2022-10-24T11:14:03.550Z,2.15
2022-10-24T11:16:31.751Z,1.90
2022-10-24T11:19:09.461Z,1.83
2022-10-24T11:21:37.465Z,1.92
2022-10-24T11:24:13.950Z,2.10
2022-10-24T11:26:43.746Z,1.80
2022-10-24T11:32:58.463Z,2.42
2022-10-24T11:35:24.975Z,2.53
2022-10-24T11:37:57.490Z,2.15
2022-10-24T11:45:00.976Z,2.55
2022-10-24T11:47:27.495Z,2.42
2022-10-24T11:50:12.260Z,2.45
2022-10-24T11:53:23.810Z,3.55
2022-10-24T11:56:02.728Z,3.03
2022-10-24T12:02:54.155Z,2.50
2022-10-24T12:05:54.325Z,2.67
2022-10-24T12:08:33.098Z,3.00
2022-10-24T12:11:23.382Z,2.95
2022-10-24T12:17:48.878Z,3.20
2022-10-24T12:20:20.543Z,3.03
2022-10-24T12:22:49.085Z,3.38
2022-10-24T12:29:28.195Z,3.70
2022-10-24T12:31:55.308Z,3.38
2022-10-24T12:38:16.155Z,3.47
2022-10-24T12:40:46.218Z,4.43
2022-10-24T12:43:36.053Z,3.80
2022-10-24T12:46:18.850Z,3.95
2022-10-24T12:48:58.289Z,3.30
2022-10-24T12:51:37.017Z,3.90
2022-10-24T12:54:17.088Z,3.80
2022-10-24T12:56:50.060Z,4.07
2022-10-24T12:59:22.293Z,3.15
2022-10-24T13:01:51.615Z,3.85
2022-10-24T13:05:01.167Z,3.80
2022-10-24T13:07:48.632Z,4.25
2022-10-24T13:10:45.728Z,3.63
2022-10-24T13:13:21.199Z,3.17
2022-10-24T13:16:59.347Z,3.37
2022-10-24T13:23:14.119Z,3.17
2022-10-24T13:25:41.286Z,3.22
2022-10-24T13:28:19.737Z,4.03
2022-10-24T13:30:49.649Z,3.55
2022-10-24T13:33:36.475Z,4.13
2022-10-24T13:36:09.424Z,4.53
2022-10-24T13:39:01.892Z,3.13
2022-10-24T13:41:34.554Z,3.78
2022-10-24T13:44:23.126Z,3.75
2022-10-24T13:46:54.719Z,3.83
2022-10-24T13:49:36.570Z,3.30
2022-10-24T13:52:17.289Z,3.47
2022-10-24T13:54:47.927Z,3.63
2022-10-24T13:57:43.395Z,3.63
2022-10-24T14:00:20.961Z,3.95
2022-10-24T14:02:47.726Z,3.85
2022-10-24T14:05:30.170Z,3.60
2022-10-24T14:07:58.842Z,3.25
2022-10-24T14:10:26.417Z,4.15
2022-10-24T14:12:57.163Z,3.78
2022-10-24T14:15:28.370Z,3.30
2022-10-24T14:18:01.213Z,3.75
2022-10-24T14:20:34.387Z,3.60
2022-10-24T14:23:01.668Z,3.42
2022-10-24T14:25:30.408Z,3.70
2022-10-24T14:28:03.764Z,3.38
2022-10-24T14:30:34.603Z,3.38
2022-10-24T14:33:07.496Z,3.50
2022-10-24T14:35:34.172Z,3.33
2022-10-24T14:38:01.010Z,3.58
2022-10-24T14:40:30.058Z,4.15
2022-10-24T14:42:56.876Z,4.28
2022-10-24T14:45:28.835Z,3.63
2022-10-24T14:47:58.583Z,3.67
2022-10-24T14:50:47.195Z,3.78
2022-10-24T14:53:25.005Z,3.28
2022-10-24T14:55:58.983Z,4.15
2022-10-24T14:58:32.467Z,3.50
2022-10-24T15:00:59.849Z,3.60
2022-10-24T15:03:28.101Z,3.40
2022-10-24T15:06:10.050Z,3.67
2022-10-24T15:08:36.625Z,3.60
2022-10-24T15:11:17.602Z,2.72
2022-10-24T15:14:05.203Z,3.40
2022-10-24T15:16:38.764Z,3.55
2022-10-24T15:19:12.999Z,3.38
2022-10-24T15:21:43.987Z,4.00
2022-10-24T15:24:23.882Z,3.75
2022-10-24T15:26:51.065Z,3.58
2022-10-24T15:29:20.897Z,3.50
2022-10-24T15:31:50.132Z,3.30
2022-10-24T15:34:19.804Z,3.63
2022-10-24T15:36:48.557Z,3.95
2022-10-24T15:39:21.297Z,3.78
2022-10-24T15:41:48.238Z,3.30
2022-10-24T15:44:30.589Z,3.72
2022-10-24T15:46:57.659Z,3.70
2022-10-24T15:49:24.354Z,3.45
2022-10-24T15:51:51.726Z,3.90
2022-10-24T15:54:22.532Z,3.45
2022-10-24T15:56:49.964Z,3.50
2022-10-24T15:59:18.594Z,3.58
2022-10-24T16:01:49.631Z,3.25
2022-10-24T16:04:17.050Z,3.88
2022-10-24T16:06:43.576Z,3.63
2022-10-24T16:09:19.886Z,3.70
2022-10-24T16:11:46.974Z,3.58
2022-10-24T16:14:18.530Z,3.55
2022-10-24T16:16:45.324Z,3.50
2022-10-24T16:19:12.266Z,4.05
2022-10-24T16:21:40.380Z,4.30
2022-10-24T16:24:08.434Z,4.22
2022-10-24T16:26:35.011Z,3.95
2022-10-24T16:29:01.565Z,3.80
2022-10-24T16:31:28.190Z,3.42
2022-10-24T16:33:54.766Z,3.60
2022-10-24T16:36:24.593Z,3.97
2022-10-24T16:38:52.134Z,4.20
2022-10-24T16:41:21.560Z,4.50
2022-10-24T16:43:49.973Z,3.95
2022-10-24T16:46:19.525Z,4.55
2022-10-24T16:48:47.116Z,3.97
2022-10-24T16:51:19.758Z,4.15
2022-10-24T16:53:46.423Z,5.72
2022-10-24T16:56:14.581Z,4.32
2022-10-24T16:58:41.544Z,5.00
2022-10-24T17:01:11.212Z,11.18
2022-10-24T17:03:38.580Z,11.75
2022-10-24T17:06:05.352Z,9.60
2022-10-24T17:08:35.847Z,8.07
2022-10-24T17:11:03.168Z,13.77
2022-10-24T17:13:29.854Z,12.75
2022-10-24T17:15:56.661Z,19.27
2022-10-24T17:18:25.449Z,17.83
2022-10-24T17:20:58.991Z,26.02
2022-10-24T17:23:28.183Z,34.70
2022-10-24T17:25:55.456Z,17.27
2022-10-24T17:28:22.152Z,37.03
2022-10-24T17:30:48.839Z,39.63
2022-10-24T17:33:16.444Z,49.63
2022-10-24T17:35:52.616Z,64.57
2022-10-24T17:38:42.529Z,52.08
2022-10-24T17:41:24.649Z,50.13
2022-10-24T17:43:54.337Z,104.93
2022-10-24T17:46:21.147Z,59.10
2022-10-24T17:48:47.663Z,75.93
2022-10-24T17:51:17.886Z,38.95
2022-10-24T17:53:44.351Z,61.65
2022-10-24T17:58:44.161Z,72.28
2022-10-24T18:01:11.800Z,66.20
2022-10-24T18:03:38.797Z,91.30
2022-10-24T18:06:07.298Z,75.03
2022-10-24T18:08:34.170Z,66.47
2022-10-24T18:11:09.129Z,59.05
2022-10-24T18:13:40.198Z,83.40
2022-10-24T18:16:11.453Z,101.40
2022-10-24T18:18:40.948Z,80.50
2022-10-24T18:21:13.477Z,63.78
2022-10-24T18:23:40.291Z,57.47
2022-10-24T18:26:12.698Z,28.23
2022-10-24T18:28:41.671Z,15.50
2022-10-24T18:31:10.800Z,34.53
2022-10-24T18:33:38.258Z,23.30
2022-10-24T18:36:10.328Z,18.38
2022-10-24T18:38:37.287Z,23.45
2022-10-24T18:41:04.242Z,23.50
2022-10-24T18:43:30.881Z,14.80
2022-10-24T18:45:58.009Z,49.58
2022-10-24T18:48:24.896Z,33.08
2022-10-24T18:50:51.567Z,25.88
2022-10-24T18:53:24.976Z,32.10
2022-10-24T18:55:52.048Z,28.67
2022-10-24T18:58:20.091Z,29.92
2022-10-24T19:00:47.599Z,37.60
2022-10-24T19:03:23.525Z,35.20
2022-10-24T19:06:14.001Z,31.60
2022-10-24T19:08:40.774Z,12.05
2022-10-24T19:13:39.015Z,29.60
2022-10-24T19:16:05.740Z,29.05
2022-10-24T19:18:36.933Z,32.05
2022-10-24T19:21:05.976Z,32.30
2022-10-24T19:23:32.493Z,29.15
2022-10-24T19:25:58.964Z,30.05
2022-10-24T19:28:25.575Z,31.60
2022-10-24T19:30:52.158Z,36.90
2022-10-24T19:33:18.928Z,28.95
2022-10-24T19:35:48.932Z,31.58
2022-10-24T19:38:17.101Z,28.52
2022-10-24T19:40:52.189Z,29.88
2022-10-24T19:43:23.289Z,33.15
2022-10-24T19:46:07.043Z,34.25
2022-10-24T19:48:38.547Z,32.13
2022-10-24T19:51:11.004Z,35.60
2022-10-24T19:53:42.928Z,30.33
2022-10-24T19:56:15.944Z,30.45
2022-10-24T19:58:43.178Z,28.98
2022-10-24T20:01:22.210Z,32.55
2022-10-24T20:03:50.059Z,38.47
2022-10-24T20:06:17.990Z,40.83
2022-10-24T20:08:46.711Z,40.08
2022-10-24T20:11:15.318Z,26.75
2022-10-24T20:13:42.935Z,34.33
2022-10-24T20:16:10.585Z,31.27
2022-10-24T20:18:38.269Z,35.53
2022-10-24T20:21:07.395Z,35.08
2022-10-24T20:23:35.135Z,37.53
2022-10-24T20:26:09.115Z,29.83
2022-10-24T20:28:38.063Z,28.92
2022-10-24T20:31:05.723Z,48.00
2022-10-24T20:33:32.284Z,61.10
2022-10-24T20:36:00.829Z,69.50
2022-10-24T20:38:28.332Z,64.03
2022-10-24T20:40:54.934Z,71.93
2022-10-24T20:43:21.510Z,62.25
2022-10-24T20:45:48.285Z,65.00
2022-10-24T20:48:14.798Z,62.65
2022-10-24T20:50:41.446Z,60.75
2022-10-24T20:53:07.953Z,97.53
2022-10-24T20:55:45.237Z,84.20
2022-10-24T20:58:14.575Z,50.22
2022-10-24T21:03:15.089Z,44.17
2022-10-24T21:05:41.606Z,45.42
2022-10-24T21:08:08.104Z,51.17
2022-10-24T21:10:34.593Z,47.95
2022-10-24T21:13:01.067Z,69.88
2022-10-24T21:15:27.543Z,56.92
2022-10-24T21:17:54.021Z,49.53
2022-10-24T21:20:20.584Z,17.70
2022-10-24T21:22:47.065Z,43.40
2022-10-24T21:25:13.859Z,44.97
2022-10-24T21:27:40.334Z,23.35
2022-10-24T21:30:10.918Z,43.13
2022-10-24T21:32:40.166Z,36.92
2022-10-24T21:35:07.046Z,33.58
2022-10-24T21:37:33.516Z,35.28
2022-10-24T21:40:00.108Z,36.90
2022-10-24T21:42:26.618Z,33.75
2022-10-24T21:44:53.073Z,33.38
2022-10-24T21:47:19.573Z,27.63
2022-10-24T21:49:46.040Z,37.30
2022-10-24T21:52:12.514Z,24.15
2022-10-24T21:54:39.010Z,22.08
2022-10-24T21:57:05.525Z,25.30
2022-10-24T21:59:31.998Z,20.25
2022-10-24T22:01:58.851Z,15.98
2022-10-24T22:04:25.882Z,23.50
2022-10-24T22:06:53.107Z,23.65
2022-10-24T22:09:23.672Z,29.77
2022-10-24T22:11:50.296Z,22.88
2022-10-24T22:14:17.991Z,21.48
2022-10-24T22:16:45.260Z,17.00
2022-10-24T22:19:12.850Z,24.13
2022-10-24T22:21:45.092Z,20.05
2022-10-24T22:24:20.825Z,24.45
2022-10-24T22:26:48.134Z,21.40
2022-10-24T22:29:17.625Z,17.30
2022-10-24T22:31:45.205Z,21.13
2022-10-24T22:34:16.890Z,20.52
2022-10-24T22:37:12.810Z,19.30
2022-10-24T22:39:40.180Z,13.13
2022-10-24T22:42:13.721Z,14.27
2022-10-24T22:44:43.697Z,16.58
2022-10-24T22:47:22.309Z,16.17
2022-10-24T22:50:35.401Z,13.20
2022-10-24T22:53:02.344Z,13.10
2022-10-24T22:55:35.366Z,15.23
2022-10-24T22:58:02.307Z,8.43
2022-10-24T23:00:29.387Z,15.10
2022-10-24T23:03:06.968Z,16.50
2022-10-24T23:05:44.469Z,62.92
2022-10-24T23:08:26.248Z,53.78
2022-10-24T23:10:52.924Z,31.83
2022-10-24T23:13:19.717Z,27.75
2022-10-24T23:15:46.453Z,25.40
2022-10-24T23:18:16.249Z,17.83
2022-10-24T23:21:11.496Z,16.77
2022-10-24T23:23:38.198Z,24.10
2022-10-24T23:26:19.387Z,24.58
2022-10-24T23:29:06.173Z,24.75
2022-10-24T23:31:32.947Z,22.60
2022-10-24T23:33:59.706Z,19.60
2022-10-24T23:36:28.046Z,20.75
2022-10-24T23:38:56.805Z,19.58
2022-10-24T23:41:23.654Z,18.10
2022-10-24T23:43:50.397Z,17.20
2022-10-24T23:46:32.357Z,14.55
2022-10-24T23:49:06.752Z,14.48
2022-10-24T23:51:41.950Z,17.40
2022-10-24T23:54:12.802Z,14.52
2022-10-24T23:56:39.921Z,15.50
2022-10-24T23:59:06.433Z,17.27
